createdAt,value
2019-05-28T00:01:04.372Z,2.40
2019-05-28T00:03:32.650Z,3.20
2019-05-28T00:06:01.340Z,2.67
2019-05-28T00:08:38.764Z,2.77
2019-05-28T00:11:10.269Z,2.77
2019-05-28T00:13:38.540Z,2.43
2019-05-28T00:16:09.912Z,2.27
2019-05-28T00:18:38.309Z,2.60
2019-05-28T00:21:06.492Z,2.47
2019-05-28T00:23:35.115Z,3.00
2019-05-28T00:26:02.771Z,3.00
2019-05-28T00:28:30.961Z,2.20
2019-05-28T00:30:59.206Z,2.30
2019-05-28T00:33:27.506Z,2.20
2019-05-28T00:35:56.089Z,3.27
2019-05-28T00:38:24.368Z,1.90
2019-05-28T00:40:53.317Z,2.27
2019-05-28T00:43:21.640Z,4.27
2019-05-28T00:45:49.911Z,2.27
2019-05-28T00:48:18.185Z,2.47
2019-05-28T00:50:46.382Z,2.30
2019-05-28T00:53:14.576Z,2.50
2019-05-28T00:55:43.836Z,3.20
2019-05-28T00:58:12.168Z,3.07
2019-05-28T01:00:50.298Z,3.43
2019-05-28T01:03:18.434Z,4.33
2019-05-28T01:05:47.148Z,2.80
2019-05-28T01:08:15.451Z,3.43
2019-05-28T01:10:44.397Z,2.83
2019-05-28T01:13:13.412Z,3.40
2019-05-28T01:15:41.339Z,4.43
2019-05-28T01:18:10.446Z,3.40
2019-05-28T01:20:39.104Z,3.47
2019-05-28T01:23:07.009Z,2.97
2019-05-28T01:25:35.636Z,3.27
2019-05-28T01:28:04.237Z,3.27
2019-05-28T01:30:34.136Z,4.50
2019-05-28T01:33:02.089Z,3.60
2019-05-28T01:35:30.295Z,3.87
2019-05-28T01:37:58.582Z,3.60
2019-05-28T01:40:27.185Z,3.93
2019-05-28T01:42:55.666Z,3.83
2019-05-28T01:45:24.242Z,4.20
2019-05-28T01:47:52.630Z,3.57
2019-05-28T01:50:20.784Z,3.57
2019-05-28T01:52:49.022Z,3.77
2019-05-28T01:55:17.739Z,3.80
2019-05-28T01:57:46.346Z,4.30
2019-05-28T02:00:16.443Z,3.67
2019-05-28T02:02:46.913Z,4.73
2019-05-28T02:05:17.979Z,3.83
2019-05-28T02:07:46.271Z,8.00
2019-05-28T02:10:14.945Z,5.03
2019-05-28T02:12:43.226Z,4.57
2019-05-28T02:15:12.322Z,5.03
2019-05-28T02:17:40.609Z,5.73
2019-05-28T02:20:09.722Z,5.37
2019-05-28T02:22:38.098Z,5.77
2019-05-28T02:25:07.592Z,5.03
2019-05-28T02:27:35.905Z,7.20
2019-05-28T02:30:04.463Z,5.57
2019-05-28T02:32:32.594Z,6.20
2019-05-28T02:35:01.041Z,6.07
2019-05-28T02:37:29.629Z,3.90
2019-05-28T02:39:57.812Z,4.53
2019-05-28T02:42:25.990Z,4.47
2019-05-28T02:44:55.301Z,4.47
2019-05-28T02:47:23.532Z,4.23
2019-05-28T02:49:51.864Z,3.83
2019-05-28T02:52:19.413Z,3.77
2019-05-28T02:54:47.466Z,4.13
2019-05-28T02:57:16.687Z,4.57
2019-05-28T02:59:47.027Z,6.43
2019-05-28T03:02:15.754Z,5.33
2019-05-28T03:04:44.614Z,4.97
2019-05-28T03:07:13.313Z,6.00
2019-05-28T03:09:43.322Z,5.17
2019-05-28T03:12:11.860Z,5.57
2019-05-28T03:14:40.469Z,7.13
2019-05-28T03:17:09.046Z,4.83
2019-05-28T03:19:38.511Z,5.47
2019-05-28T03:22:08.764Z,8.20
2019-05-28T03:24:37.905Z,5.27
2019-05-28T03:27:05.904Z,4.97
2019-05-28T03:29:35.941Z,5.20
2019-05-28T03:32:08.421Z,4.60
2019-05-28T03:34:35.631Z,5.17
2019-05-28T03:37:04.055Z,4.70
2019-05-28T03:39:32.667Z,5.13
2019-05-28T03:42:00.825Z,3.43
2019-05-28T03:44:29.483Z,2.80
2019-05-28T03:46:58.207Z,5.13
2019-05-28T03:49:27.082Z,5.10
2019-05-28T03:51:55.072Z,2.67
2019-05-28T03:54:23.717Z,1.97
2019-05-28T03:56:53.405Z,2.20
2019-05-28T03:59:21.460Z,1.67
2019-05-28T04:01:49.784Z,1.00
2019-05-28T04:04:17.920Z,1.20
2019-05-28T04:06:46.110Z,2.67
2019-05-28T04:09:14.335Z,0.77
2019-05-28T04:11:44.986Z,1.53
2019-05-28T04:14:12.742Z,1.40
2019-05-28T04:16:40.973Z,3.73
2019-05-28T04:19:08.919Z,3.30
2019-05-28T04:21:37.224Z,5.77
2019-05-28T04:24:06.952Z,5.77
2019-05-28T04:26:35.234Z,4.67
2019-05-28T04:29:03.101Z,5.60
2019-05-28T04:31:31.444Z,8.60
2019-05-28T04:33:59.431Z,11.10
2019-05-28T04:36:28.886Z,11.97
2019-05-28T04:38:57.153Z,12.93
2019-05-28T04:41:25.536Z,13.93
2019-05-28T04:43:54.987Z,13.23
2019-05-28T04:46:22.860Z,15.07
2019-05-28T04:48:51.363Z,13.93
2019-05-28T04:51:19.698Z,14.00
2019-05-28T04:53:47.556Z,17.27
2019-05-28T04:56:16.166Z,15.47
2019-05-28T04:58:44.430Z,16.67
2019-05-28T05:01:13.035Z,17.23
2019-05-28T05:03:40.574Z,16.57
2019-05-28T05:06:09.392Z,16.77
2019-05-28T05:08:37.995Z,17.13
2019-05-28T05:11:06.625Z,15.93
2019-05-28T05:13:34.230Z,15.00
2019-05-28T05:16:02.876Z,15.47
2019-05-28T05:18:30.386Z,16.30
2019-05-28T05:20:58.252Z,17.87
2019-05-28T05:23:26.646Z,16.33
2019-05-28T05:25:56.222Z,14.00
2019-05-28T05:28:24.515Z,17.57
2019-05-28T05:30:52.190Z,16.77
2019-05-28T05:33:21.033Z,15.40
2019-05-28T05:35:49.690Z,16.63
2019-05-28T05:38:17.246Z,29.40
2019-05-28T05:40:45.151Z,16.13
2019-05-28T05:43:13.822Z,18.60
2019-05-28T05:45:42.131Z,17.87
2019-05-28T05:48:10.596Z,19.63
2019-05-28T05:50:39.381Z,16.30
2019-05-28T05:53:08.740Z,13.57
2019-05-28T05:55:36.238Z,15.53
2019-05-28T05:58:04.439Z,15.50
2019-05-28T06:00:32.700Z,12.63
2019-05-28T06:03:00.598Z,12.37
2019-05-28T06:05:28.808Z,14.07
2019-05-28T06:07:57.518Z,16.53
2019-05-28T06:10:26.063Z,14.53
2019-05-28T06:12:54.441Z,11.03
2019-05-28T06:15:22.296Z,10.77
2019-05-28T06:17:52.580Z,10.67
2019-05-28T06:20:21.148Z,10.33
2019-05-28T06:22:49.587Z,9.80
2019-05-28T06:25:19.909Z,10.20
2019-05-28T06:27:48.515Z,8.60
2019-05-28T06:30:17.028Z,7.30
2019-05-28T06:32:45.593Z,8.90
2019-05-28T06:35:14.287Z,7.63
2019-05-28T06:37:42.616Z,7.33
2019-05-28T06:40:11.836Z,7.70
2019-05-28T06:42:40.356Z,8.23
2019-05-28T06:45:09.118Z,10.13
2019-05-28T06:47:37.963Z,10.63
2019-05-28T06:50:07.599Z,11.23
2019-05-28T06:52:35.975Z,10.70
2019-05-28T06:55:04.660Z,10.10
2019-05-28T06:57:33.231Z,11.00
2019-05-28T07:00:01.118Z,8.73
2019-05-28T07:02:29.519Z,10.43
2019-05-28T07:04:58.251Z,8.17
2019-05-28T07:07:26.771Z,14.80
2019-05-28T07:09:55.049Z,11.60
2019-05-28T07:12:22.906Z,10.33
2019-05-28T07:14:51.363Z,12.07
2019-05-28T07:17:19.710Z,11.87
2019-05-28T07:19:48.092Z,11.20
2019-05-28T07:22:16.382Z,10.97
2019-05-28T07:24:44.322Z,9.40
2019-05-28T07:27:14.083Z,9.13
2019-05-28T07:29:42.031Z,9.90
2019-05-28T07:32:10.404Z,8.67
2019-05-28T07:34:38.341Z,8.23
2019-05-28T07:37:06.637Z,10.57
2019-05-28T07:39:34.842Z,9.80
2019-05-28T07:42:03.102Z,9.03
2019-05-28T07:44:32.322Z,7.73
2019-05-28T07:47:00.853Z,10.97
2019-05-28T07:49:29.383Z,11.17
2019-05-28T07:51:57.678Z,10.30
2019-05-28T07:54:26.185Z,12.77
2019-05-28T07:56:54.567Z,13.37
2019-05-28T07:59:23.188Z,12.07
2019-05-28T08:01:51.541Z,9.33
2019-05-28T08:04:20.231Z,12.43
2019-05-28T08:06:54.644Z,11.27
2019-05-28T08:09:20.999Z,10.47
2019-05-28T08:11:49.490Z,12.40
2019-05-28T08:14:47.330Z,10.07
2019-05-28T08:17:18.818Z,11.97
2019-05-28T08:20:13.461Z,16.33
2019-05-28T08:23:14.249Z,13.13
2019-05-28T08:26:11.841Z,12.40
2019-05-28T08:29:08.692Z,14.00
2019-05-28T08:32:07.012Z,15.23
2019-05-28T08:35:06.363Z,14.07
2019-05-28T08:37:47.553Z,12.07
2019-05-28T08:40:25.028Z,11.00
2019-05-28T08:43:02.477Z,10.83
2019-05-28T08:45:36.383Z,9.43
2019-05-28T08:51:11.519Z,9.93
2019-05-28T08:54:04.628Z,11.87
2019-05-28T08:56:51.901Z,12.03
2019-05-28T08:59:43.146Z,12.77
2019-05-28T09:02:43.241Z,14.53
2019-05-28T09:05:29.560Z,14.07
2019-05-28T09:08:17.413Z,14.73
2019-05-28T09:10:46.222Z,12.93
2019-05-28T09:13:37.210Z,14.87
2019-05-28T09:16:20.219Z,12.40
2019-05-28T09:19:05.500Z,13.93
2019-05-28T09:21:54.451Z,13.13
2019-05-28T09:24:48.928Z,12.30
2019-05-28T09:27:51.634Z,9.10
2019-05-28T09:30:47.130Z,13.80
2019-05-28T09:33:15.670Z,12.60
2019-05-28T09:36:03.474Z,14.53
2019-05-28T09:38:14.241Z,11.00
2019-05-28T09:40:50.061Z,13.30
2019-05-28T09:43:12.020Z,10.87
2019-05-28T09:45:56.606Z,10.73
2019-05-28T09:48:25.201Z,7.87
2019-05-28T09:50:53.333Z,10.67
2019-05-28T09:53:21.366Z,7.67
2019-05-28T09:55:49.179Z,6.50
2019-05-28T09:58:17.628Z,13.10
2019-05-28T10:00:57.378Z,11.37
2019-05-28T10:03:15.898Z,8.30
2019-05-28T10:05:56.980Z,18.07
2019-05-28T10:08:12.974Z,8.80
2019-05-28T10:10:41.696Z,10.00
2019-05-28T10:13:10.056Z,9.03
2019-05-28T10:15:38.102Z,9.80
2019-05-28T10:18:06.537Z,6.83
2019-05-28T10:20:38.167Z,8.07
2019-05-28T10:23:06.446Z,7.07
2019-05-28T10:25:34.808Z,7.87
2019-05-28T10:28:02.678Z,6.70
2019-05-28T10:30:31.337Z,8.93
2019-05-28T10:32:59.957Z,5.80
2019-05-28T10:35:29.161Z,8.60
2019-05-28T10:37:57.562Z,6.00
2019-05-28T10:40:25.933Z,9.07
2019-05-28T10:42:54.167Z,8.63
2019-05-28T10:45:23.129Z,7.10
2019-05-28T10:47:51.819Z,4.30
2019-05-28T10:50:21.177Z,5.53
2019-05-28T10:52:49.807Z,6.80
2019-05-28T10:55:18.187Z,6.83
2019-05-28T10:57:46.865Z,9.03
2019-05-28T11:00:15.980Z,9.03
2019-05-28T11:02:44.645Z,7.47
2019-05-28T11:05:13.812Z,6.07
2019-05-28T11:07:41.696Z,7.17
2019-05-28T11:10:23.234Z,4.00
2019-05-28T11:12:40.245Z,5.53
2019-05-28T11:15:08.827Z,4.53
2019-05-28T11:17:37.234Z,4.70
2019-05-28T11:20:05.827Z,7.53
2019-05-28T11:22:34.255Z,4.40
2019-05-28T11:25:03.022Z,5.13
2019-05-28T11:27:31.081Z,6.27
2019-05-28T11:29:59.769Z,3.60
2019-05-28T11:32:27.854Z,5.40
2019-05-28T11:34:56.061Z,4.60
2019-05-28T11:37:24.817Z,7.80
2019-05-28T11:39:53.115Z,3.97
2019-05-28T11:42:21.252Z,15.00
2019-05-28T11:44:49.488Z,3.67
2019-05-28T11:47:18.237Z,6.87
2019-05-28T11:49:46.840Z,6.50
2019-05-28T11:52:15.574Z,4.37
2019-05-28T11:54:44.389Z,5.87
2019-05-28T11:57:12.761Z,4.27
2019-05-28T11:59:40.677Z,4.93
2019-05-28T12:02:10.484Z,4.93
2019-05-28T12:04:38.895Z,6.83
2019-05-28T12:07:08.018Z,36.03
2019-05-28T12:09:36.371Z,4.77
2019-05-28T12:12:04.403Z,13.73
2019-05-28T12:14:33.151Z,12.20
2019-05-28T12:17:02.465Z,5.10
2019-05-28T12:19:30.806Z,4.67
2019-05-28T12:22:00.885Z,12.73
2019-05-28T12:24:29.473Z,2.87
2019-05-28T12:26:58.225Z,4.23
2019-05-28T12:29:26.841Z,4.00
2019-05-28T12:31:55.339Z,4.37
2019-05-28T12:34:25.619Z,7.57
2019-05-28T12:36:54.329Z,7.10
2019-05-28T12:39:22.393Z,4.00
2019-05-28T12:42:01.434Z,4.97
2019-05-28T12:44:20.817Z,5.80
2019-05-28T12:46:49.328Z,8.40
2019-05-28T12:49:17.481Z,9.03
2019-05-28T12:51:46.162Z,4.63
2019-05-28T12:54:14.672Z,5.07
2019-05-28T12:56:43.376Z,2.87
2019-05-28T12:59:11.988Z,3.67
2019-05-28T13:01:40.578Z,4.53
2019-05-28T13:04:08.404Z,4.90
2019-05-28T13:06:36.682Z,4.17
2019-05-28T13:09:06.852Z,7.17
2019-05-28T13:11:34.979Z,4.43
2019-05-28T13:14:03.602Z,6.40
2019-05-28T13:16:32.398Z,7.17
2019-05-28T13:19:01.058Z,6.73
2019-05-28T13:21:29.020Z,5.67
2019-05-28T13:23:57.635Z,3.87
2019-05-28T13:26:26.337Z,6.90
2019-05-28T13:28:54.144Z,9.40
2019-05-28T13:31:23.896Z,4.47
2019-05-28T13:33:52.038Z,5.40
2019-05-28T13:36:20.613Z,5.97
2019-05-28T13:38:49.184Z,5.57
2019-05-28T13:41:17.402Z,3.37
2019-05-28T13:43:46.003Z,4.30
2019-05-28T13:46:13.856Z,5.07
2019-05-28T13:48:41.993Z,2.43
2019-05-28T13:51:11.379Z,3.30
2019-05-28T13:53:40.013Z,2.20
2019-05-28T13:56:07.957Z,2.77
2019-05-28T13:58:35.923Z,2.30
2019-05-28T14:01:04.415Z,3.00
2019-05-28T14:03:32.609Z,2.00
2019-05-28T14:06:01.373Z,4.07
2019-05-28T14:08:44.625Z,3.03
2019-05-28T14:10:59.797Z,4.13
2019-05-28T14:13:28.068Z,3.03
2019-05-28T14:15:56.247Z,3.00
2019-05-28T14:18:24.574Z,3.33
2019-05-28T14:20:52.806Z,2.90
2019-05-28T14:23:20.802Z,2.10
2019-05-28T14:25:49.184Z,3.93
2019-05-28T14:28:21.596Z,4.30
2019-05-28T14:30:59.833Z,5.87
2019-05-28T14:33:22.023Z,3.67
2019-05-28T14:35:50.218Z,4.53
2019-05-28T14:38:18.555Z,5.43
2019-05-28T14:40:47.208Z,5.17
2019-05-28T14:43:16.002Z,3.83
2019-05-28T14:45:43.946Z,4.10
2019-05-28T14:48:12.433Z,4.03
2019-05-28T14:50:42.138Z,2.83
2019-05-28T14:53:11.826Z,6.63
2019-05-28T14:55:40.493Z,6.60
2019-05-28T14:58:13.397Z,5.90
2019-05-28T15:00:39.809Z,5.50
2019-05-28T15:03:08.661Z,4.20
2019-05-28T15:05:36.918Z,3.47
2019-05-28T15:08:05.265Z,4.57
2019-05-28T15:10:34.219Z,5.63
2019-05-28T15:13:02.602Z,11.93
2019-05-28T15:15:35.911Z,5.10
2019-05-28T15:18:01.118Z,10.87
2019-05-28T15:20:29.934Z,5.70
2019-05-28T15:22:58.326Z,7.13
2019-05-28T15:25:26.726Z,9.60
2019-05-28T15:27:55.573Z,24.57
2019-05-28T15:30:33.982Z,5.37
2019-05-28T15:33:02.758Z,4.20
2019-05-28T15:35:31.383Z,6.30
2019-05-28T15:38:00.578Z,10.70
2019-05-28T15:40:29.151Z,4.50
2019-05-28T15:43:06.119Z,4.63
2019-05-28T15:45:27.772Z,3.63
2019-05-28T15:47:56.138Z,6.00
2019-05-28T15:50:24.549Z,3.23
2019-05-28T15:52:53.272Z,2.53
2019-05-28T15:55:21.529Z,4.83
2019-05-28T15:57:49.676Z,7.13
2019-05-28T16:00:20.556Z,5.20
2019-05-28T16:02:48.949Z,4.37
2019-05-28T16:05:17.707Z,5.07
2019-05-28T16:07:46.394Z,3.63
2019-05-28T16:10:14.809Z,4.07
2019-05-28T16:12:43.498Z,3.70
2019-05-28T16:15:12.212Z,3.37
2019-05-28T16:17:40.518Z,7.67
2019-05-28T16:20:09.657Z,4.07
2019-05-28T16:22:38.244Z,7.17
2019-05-28T16:25:07.432Z,3.63
2019-05-28T16:27:36.067Z,8.03
2019-05-28T16:30:04.900Z,2.90
2019-05-28T16:32:33.683Z,5.03
2019-05-28T16:35:02.467Z,4.23
2019-05-28T16:37:30.735Z,3.70
2019-05-28T16:40:13.509Z,4.13
2019-05-28T16:42:28.703Z,5.70
2019-05-28T16:44:58.645Z,6.67
2019-05-28T16:47:27.715Z,4.13
2019-05-28T16:49:57.009Z,5.00
2019-05-28T16:52:25.515Z,10.83
2019-05-28T16:54:53.701Z,4.73
2019-05-28T16:57:22.166Z,7.37
2019-05-28T16:59:50.968Z,7.43
2019-05-28T17:02:20.444Z,5.40
2019-05-28T17:04:48.765Z,3.53
2019-05-28T17:07:16.846Z,5.07
2019-05-28T17:09:45.542Z,5.17
2019-05-28T17:12:13.432Z,3.93
2019-05-28T17:14:40.639Z,7.00
2019-05-28T17:17:09.374Z,3.67
2019-05-28T17:19:37.648Z,5.57
2019-05-28T17:22:06.129Z,5.77
2019-05-28T17:24:34.477Z,3.73
2019-05-28T17:27:03.169Z,5.97
2019-05-28T17:29:31.465Z,5.13
2019-05-28T17:32:01.629Z,5.80
2019-05-28T17:34:29.889Z,4.53
2019-05-28T17:36:58.293Z,5.63
2019-05-28T17:39:26.723Z,3.13
2019-05-28T17:41:55.236Z,6.10
2019-05-28T17:44:23.544Z,5.43
2019-05-28T17:46:51.866Z,4.80
2019-05-28T17:49:20.512Z,5.30
2019-05-28T17:51:48.794Z,5.00
2019-05-28T17:54:17.054Z,5.00
2019-05-28T17:56:44.942Z,4.50
2019-05-28T17:59:13.245Z,8.07
2019-05-28T18:01:41.931Z,5.30
2019-05-28T18:04:10.718Z,11.83
2019-05-28T18:06:39.329Z,16.47
2019-05-28T18:09:07.447Z,6.33
2019-05-28T18:11:36.138Z,21.07
2019-05-28T18:14:04.549Z,9.70
2019-05-28T18:16:32.154Z,18.37
2019-05-28T18:19:01.063Z,12.83
2019-05-28T18:21:29.479Z,12.23
2019-05-28T18:23:58.182Z,17.83
2019-05-28T18:26:26.922Z,17.10
2019-05-28T18:28:55.304Z,12.23
2019-05-28T18:31:23.541Z,5.83
2019-05-28T18:33:50.963Z,19.17
2019-05-28T18:36:19.238Z,11.30
2019-05-28T18:38:47.680Z,3.50
2019-05-28T18:41:21.660Z,4.60
2019-05-28T18:43:47.618Z,4.23
2019-05-28T18:46:15.978Z,7.90
2019-05-28T18:48:43.799Z,4.97
2019-05-28T18:51:12.584Z,3.00
2019-05-28T18:53:40.848Z,5.23
2019-05-28T18:56:16.933Z,6.00
2019-05-28T18:58:40.910Z,4.43
2019-05-28T19:01:09.583Z,5.10
2019-05-28T19:03:38.104Z,4.87
2019-05-28T19:06:06.489Z,4.07
2019-05-28T19:08:34.723Z,4.97
2019-05-28T19:11:03.118Z,4.77
2019-05-28T19:13:32.680Z,4.17
2019-05-28T19:16:01.013Z,5.30
2019-05-28T19:18:29.316Z,6.37
2019-05-28T19:20:57.662Z,7.33
2019-05-28T19:23:26.181Z,4.47
2019-05-28T19:25:55.061Z,8.03
2019-05-28T19:28:23.395Z,6.50
2019-05-28T19:30:52.027Z,5.67
2019-05-28T19:33:20.649Z,4.10
2019-05-28T19:35:49.140Z,5.43
2019-05-28T19:38:18.098Z,4.10
2019-05-28T19:40:46.618Z,7.07
2019-05-28T19:43:15.502Z,4.37
2019-05-28T19:45:43.437Z,5.17
2019-05-28T19:48:11.731Z,4.97
2019-05-28T19:50:39.380Z,4.27
2019-05-28T19:53:08.016Z,3.30
2019-05-28T19:55:36.677Z,3.87
2019-05-28T19:58:06.109Z,5.77
2019-05-28T20:00:34.584Z,16.07
2019-05-28T20:03:03.095Z,9.10
2019-05-28T20:05:31.459Z,18.47
2019-05-28T20:07:59.719Z,30.07
2019-05-28T20:10:27.866Z,21.20
2019-05-28T20:12:55.905Z,6.63
2019-05-28T20:15:25.799Z,13.70
2019-05-28T20:17:56.726Z,10.27
2019-05-28T20:20:25.248Z,15.93
2019-05-28T20:22:54.012Z,19.60
2019-05-28T20:25:23.142Z,13.33
2019-05-28T20:27:51.942Z,17.00
2019-05-28T20:30:22.174Z,18.87
2019-05-28T20:32:50.967Z,9.60
2019-05-28T20:35:19.225Z,4.43
2019-05-28T20:37:47.518Z,6.27
2019-05-28T20:40:16.014Z,4.63
2019-05-28T20:42:44.694Z,5.00
2019-05-28T20:45:15.171Z,6.00
2019-05-28T20:47:43.482Z,6.47
2019-05-28T20:50:12.017Z,5.17
2019-05-28T20:52:40.301Z,3.60
2019-05-28T20:55:09.446Z,7.90
2019-05-28T20:57:37.767Z,3.03
2019-05-28T21:00:06.520Z,4.37
2019-05-28T21:02:36.127Z,5.03
2019-05-28T21:05:05.094Z,5.47
2019-05-28T21:07:34.698Z,8.07
2019-05-28T21:10:02.512Z,6.33
2019-05-28T21:12:42.750Z,3.97
2019-05-28T21:15:00.643Z,7.53
2019-05-28T21:17:28.941Z,4.67
2019-05-28T21:19:59.430Z,4.47
2019-05-28T21:22:28.221Z,5.70
2019-05-28T21:24:58.801Z,5.40
2019-05-28T21:27:27.512Z,8.23
2019-05-28T21:29:56.254Z,8.70
2019-05-28T21:32:24.264Z,12.53
2019-05-28T21:34:57.308Z,14.73
2019-05-28T21:37:24.196Z,9.20
2019-05-28T21:39:53.497Z,22.03
2019-05-28T21:42:21.493Z,11.30
2019-05-28T21:44:50.072Z,17.53
2019-05-28T21:47:18.453Z,13.90
2019-05-28T21:49:46.647Z,11.93
2019-05-28T21:52:14.620Z,11.40
2019-05-28T21:54:42.990Z,8.20
2019-05-28T21:57:12.642Z,8.30
2019-05-28T21:59:41.219Z,14.17
2019-05-28T22:02:10.479Z,7.90
2019-05-28T22:04:38.357Z,11.63
2019-05-28T22:07:07.851Z,10.87
2019-05-28T22:09:36.161Z,7.93
2019-05-28T22:12:05.081Z,13.37
2019-05-28T22:14:33.207Z,7.07
2019-05-28T22:17:03.556Z,7.80
2019-05-28T22:19:32.141Z,9.23
2019-05-28T22:22:00.549Z,17.00
2019-05-28T22:24:28.917Z,4.80
2019-05-28T22:26:58.481Z,10.50
2019-05-28T22:29:27.406Z,4.90
2019-05-28T22:31:56.827Z,6.00
2019-05-28T22:34:25.118Z,7.83
2019-05-28T22:36:56.176Z,9.17
2019-05-28T22:39:24.835Z,7.37
2019-05-28T22:41:53.251Z,9.50
2019-05-28T22:44:21.707Z,6.63
2019-05-28T22:46:51.396Z,7.97
2019-05-28T22:49:19.681Z,6.30
2019-05-28T22:51:49.849Z,3.13
2019-05-28T22:54:18.083Z,5.53
2019-05-28T22:56:47.443Z,5.13
2019-05-28T22:59:15.616Z,2.83
2019-05-28T23:01:44.146Z,2.63
2019-05-28T23:04:12.534Z,4.47
2019-05-28T23:06:40.922Z,3.60
2019-05-28T23:09:09.849Z,5.40
2019-05-28T23:11:38.457Z,3.40
2019-05-28T23:14:06.708Z,3.47
2019-05-28T23:16:35.806Z,3.03
2019-05-28T23:19:04.987Z,2.77
2019-05-28T23:21:33.791Z,2.50
2019-05-28T23:24:03.141Z,3.50
2019-05-28T23:26:32.295Z,2.00
2019-05-28T23:29:01.624Z,2.77
2019-05-28T23:31:31.000Z,4.13
2019-05-28T23:33:59.149Z,3.40
2019-05-28T23:36:27.731Z,5.37
2019-05-28T23:38:55.594Z,3.43
2019-05-28T23:41:24.074Z,4.07
2019-05-28T23:44:01.495Z,2.73
2019-05-28T23:46:22.638Z,2.90
2019-05-28T23:48:51.206Z,3.77
2019-05-28T23:51:19.385Z,3.77
2019-05-28T23:53:47.558Z,2.87
2019-05-28T23:56:15.928Z,5.17
2019-05-28T23:58:45.652Z,2.50
